sensor_id;sensor_type;location;lat;lon;timestamp;temperature;humidity
37289;DHT22;23174;49.462;11.000;2023-02-01T00:01:57;8.70;99.90
37289;DHT22;23174;49.462;11.000;2023-02-01T00:03:58;8.70;99.90
37289;DHT22;23174;49.462;11.000;2023-02-01T00:05:59;8.70;99.90
37289;DHT22;23174;49.462;11.000;2023-02-01T00:08:00;8.70;99.90
37289;DHT22;23174;49.462;11.000;2023-02-01T00:10:00;8.70;99.90
37289;DHT22;23174;49.462;11.000;2023-02-01T00:12:01;8.70;99.90
37289;DHT22;23174;49.462;11.000;2023-02-01T00:14:03;8.70;99.90
37289;DHT22;23174;49.462;11.000;2023-02-01T00:16:18;8.70;99.90
37289;DHT22;23174;49.462;11.000;2023-02-01T00:18:19;8.80;99.90
37289;DHT22;23174;49.462;11.000;2023-02-01T00:20:20;8.80;99.90
37289;DHT22;23174;49.462;11.000;2023-02-01T00:22:21;8.80;99.90
37289;DHT22;23174;49.462;11.000;2023-02-01T00:24:21;8.90;99.90
37289;DHT22;23174;49.462;11.000;2023-02-01T00:26:40;8.90;99.90
37289;DHT22;23174;49.462;11.000;2023-02-01T00:28:41;8.80;99.90
37289;DHT22;23174;49.462;11.000;2023-02-01T00:30:41;8.80;99.90
37289;DHT22;23174;49.462;11.000;2023-02-01T00:32:42;8.80;99.90
37289;DHT22;23174;49.462;11.000;2023-02-01T00:34:42;8.90;99.90
37289;DHT22;23174;49.462;11.000;2023-02-01T00:36:44;8.90;99.90
37289;DHT22;23174;49.462;11.000;2023-02-01T00:38:44;8.90;99.90
37289;DHT22;23174;49.462;11.000;2023-02-01T00:40:45;8.80;99.90
37289;DHT22;23174;49.462;11.000;2023-02-01T00:42:46;8.80;99.90
37289;DHT22;23174;49.462;11.000;2023-02-01T00:44:46;8.80;99.90
37289;DHT22;23174;49.462;11.000;2023-02-01T00:46:47;8.90;99.90
37289;DHT22;23174;49.462;11.000;2023-02-01T00:48:48;8.90;99.90
37289;DHT22;23174;49.462;11.000;2023-02-01T00:50:49;8.80;99.90
37289;DHT22;23174;49.462;11.000;2023-02-01T00:52:49;8.80;99.90
37289;DHT22;23174;49.462;11.000;2023-02-01T00:54:50;8.80;99.90
37289;DHT22;23174;49.462;11.000;2023-02-01T00:56:50;8.80;99.90
37289;DHT22;23174;49.462;11.000;2023-02-01T00:58:51;8.80;99.90
37289;DHT22;23174;49.462;11.000;2023-02-01T01:01:06;8.80;99.90
37289;DHT22;23174;49.462;11.000;2023-02-01T01:03:07;8.80;99.90
37289;DHT22;23174;49.462;11.000;2023-02-01T01:05:18;8.90;99.90
37289;DHT22;23174;49.462;11.000;2023-02-01T01:07:18;8.80;99.90
37289;DHT22;23174;49.462;11.000;2023-02-01T01:09:19;8.80;99.90
37289;DHT22;23174;49.462;11.000;2023-02-01T01:11:23;8.80;99.90
37289;DHT22;23174;49.462;11.000;2023-02-01T01:13:24;8.80;99.90
37289;DHT22;23174;49.462;11.000;2023-02-01T01:15:24;8.90;99.90
37289;DHT22;23174;49.462;11.000;2023-02-01T01:17:28;8.80;99.90
37289;DHT22;23174;49.462;11.000;2023-02-01T01:19:28;8.80;99.90
37289;DHT22;23174;49.462;11.000;2023-02-01T01:21:29;8.90;99.90
37289;DHT22;23174;49.462;11.000;2023-02-01T01:23:30;8.80;99.90
37289;DHT22;23174;49.462;11.000;2023-02-01T01:25:31;8.80;99.90
37289;DHT22;23174;49.462;11.000;2023-02-01T01:27:32;8.90;99.90
37289;DHT22;23174;49.462;11.000;2023-02-01T01:29:32;8.90;99.90
37289;DHT22;23174;49.462;11.000;2023-02-01T01:31:33;8.80;99.90
37289;DHT22;23174;49.462;11.000;2023-02-01T01:33:33;8.90;99.90
37289;DHT22;23174;49.462;11.000;2023-02-01T01:35:34;8.90;99.90
37289;DHT22;23174;49.462;11.000;2023-02-01T01:37:35;8.80;99.90
37289;DHT22;23174;49.462;11.000;2023-02-01T01:39:36;8.80;99.90
37289;DHT22;23174;49.462;11.000;2023-02-01T01:41:36;8.80;99.90
37289;DHT22;23174;49.462;11.000;2023-02-01T01:45:54;8.80;99.90
37289;DHT22;23174;49.462;11.000;2023-02-01T01:48:24;8.70;99.90
37289;DHT22;23174;49.462;11.000;2023-02-01T01:50:33;8.70;99.90
37289;DHT22;23174;49.462;11.000;2023-02-01T01:52:37;8.80;99.90
37289;DHT22;23174;49.462;11.000;2023-02-01T01:54:41;8.70;99.90
37289;DHT22;23174;49.462;11.000;2023-02-01T01:56:43;8.70;99.90
37289;DHT22;23174;49.462;11.000;2023-02-01T01:58:46;8.70;99.90
37289;DHT22;23174;49.462;11.000;2023-02-01T02:00:47;8.70;99.90
37289;DHT22;23174;49.462;11.000;2023-02-01T02:02:54;8.70;99.90
37289;DHT22;23174;49.462;11.000;2023-02-01T02:04:57;8.70;99.90
37289;DHT22;23174;49.462;11.000;2023-02-01T02:07:04;8.70;99.90
37289;DHT22;23174;49.462;11.000;2023-02-01T02:09:05;8.80;99.90
37289;DHT22;23174;49.462;11.000;2023-02-01T02:11:06;8.80;99.90
37289;DHT22;23174;49.462;11.000;2023-02-01T02:13:07;8.80;99.90
37289;DHT22;23174;49.462;11.000;2023-02-01T02:15:09;8.80;99.90
37289;DHT22;23174;49.462;11.000;2023-02-01T02:32:05;9.00;99.90
37289;DHT22;23174;49.462;11.000;2023-02-01T02:40:49;8.80;99.90
37289;DHT22;23174;49.462;11.000;2023-02-01T02:43:09;8.90;99.90
37289;DHT22;23174;49.462;11.000;2023-02-01T02:45:55;8.90;99.90
37289;DHT22;23174;49.462;11.000;2023-02-01T02:49:00;8.90;99.90
37289;DHT22;23174;49.462;11.000;2023-02-01T02:51:08;8.90;99.90
37289;DHT22;23174;49.462;11.000;2023-02-01T02:53:37;8.80;99.90
37289;DHT22;23174;49.462;11.000;2023-02-01T02:55:57;8.80;99.90
37289;DHT22;23174;49.462;11.000;2023-02-01T02:58:18;8.80;99.90
37289;DHT22;23174;49.462;11.000;2023-02-01T03:00:39;8.80;99.90
37289;DHT22;23174;49.462;11.000;2023-02-01T03:02:58;8.80;99.90
37289;DHT22;23174;49.462;11.000;2023-02-01T03:05:17;8.80;99.90
37289;DHT22;23174;49.462;11.000;2023-02-01T03:07:49;8.70;99.90
37289;DHT22;23174;49.462;11.000;2023-02-01T03:09:54;8.80;99.90
37289;DHT22;23174;49.462;11.000;2023-02-01T03:12:01;8.80;99.90
37289;DHT22;23174;49.462;11.000;2023-02-01T03:14:22;8.80;99.90
37289;DHT22;23174;49.462;11.000;2023-02-01T03:16:32;8.80;99.90
37289;DHT22;23174;49.462;11.000;2023-02-01T03:18:41;8.80;99.90
37289;DHT22;23174;49.462;11.000;2023-02-01T03:20:45;8.80;99.90
37289;DHT22;23174;49.462;11.000;2023-02-01T03:22:48;8.70;99.90
37289;DHT22;23174;49.462;11.000;2023-02-01T03:25:09;8.70;99.90
37289;DHT22;23174;49.462;11.000;2023-02-01T03:28:00;8.70;99.90
37289;DHT22;23174;49.462;11.000;2023-02-01T03:31:49;8.70;99.90
37289;DHT22;23174;49.462;11.000;2023-02-01T03:33:50;8.70;99.90
37289;DHT22;23174;49.462;11.000;2023-02-01T03:40:13;8.80;99.90
37289;DHT22;23174;49.462;11.000;2023-02-01T03:42:22;8.80;99.90
37289;DHT22;23174;49.462;11.000;2023-02-01T03:44:47;8.80;99.90
37289;DHT22;23174;49.462;11.000;2023-02-01T03:46:58;8.80;99.90
37289;DHT22;23174;49.462;11.000;2023-02-01T03:49:00;8.70;99.90
37289;DHT22;23174;49.462;11.000;2023-02-01T03:51:04;8.80;99.90
37289;DHT22;23174;49.462;11.000;2023-02-01T03:53:09;8.70;99.90
37289;DHT22;23174;49.462;11.000;2023-02-01T03:55:12;8.70;99.90
37289;DHT22;23174;49.462;11.000;2023-02-01T03:57:16;8.70;99.90
37289;DHT22;23174;49.462;11.000;2023-02-01T03:59:20;8.70;99.90
37289;DHT22;23174;49.462;11.000;2023-02-01T04:01:20;8.60;99.90
37289;DHT22;23174;49.462;11.000;2023-02-01T04:03:21;8.70;99.90
37289;DHT22;23174;49.462;11.000;2023-02-01T04:05:22;8.70;99.90
37289;DHT22;23174;49.462;11.000;2023-02-01T04:07:22;8.80;99.90
37289;DHT22;23174;49.462;11.000;2023-02-01T04:09:23;8.80;99.90
37289;DHT22;23174;49.462;11.000;2023-02-01T04:11:24;8.70;99.90
37289;DHT22;23174;49.462;11.000;2023-02-01T04:13:24;8.70;99.90
37289;DHT22;23174;49.462;11.000;2023-02-01T04:15:25;8.80;99.90
37289;DHT22;23174;49.462;11.000;2023-02-01T04:17:25;8.80;99.90
37289;DHT22;23174;49.462;11.000;2023-02-01T04:19:26;8.90;99.90
37289;DHT22;23174;49.462;11.000;2023-02-01T04:21:27;8.90;99.90
37289;DHT22;23174;49.462;11.000;2023-02-01T04:23:28;8.80;99.90
37289;DHT22;23174;49.462;11.000;2023-02-01T04:25:29;8.80;99.90
37289;DHT22;23174;49.462;11.000;2023-02-01T04:27:30;8.80;99.90
37289;DHT22;23174;49.462;11.000;2023-02-01T04:29:31;8.80;99.90
37289;DHT22;23174;49.462;11.000;2023-02-01T04:31:31;8.80;99.90
37289;DHT22;23174;49.462;11.000;2023-02-01T04:33:32;8.90;99.90
37289;DHT22;23174;49.462;11.000;2023-02-01T04:35:33;8.90;99.90
37289;DHT22;23174;49.462;11.000;2023-02-01T04:37:33;8.80;99.90
37289;DHT22;23174;49.462;11.000;2023-02-01T04:39:34;8.90;99.90
37289;DHT22;23174;49.462;11.000;2023-02-01T04:41:35;8.90;99.90
37289;DHT22;23174;49.462;11.000;2023-02-01T04:43:36;8.90;99.90
37289;DHT22;23174;49.462;11.000;2023-02-01T04:45:36;8.80;99.90
37289;DHT22;23174;49.462;11.000;2023-02-01T04:47:37;8.80;99.90
37289;DHT22;23174;49.462;11.000;2023-02-01T04:49:37;8.80;99.90
37289;DHT22;23174;49.462;11.000;2023-02-01T04:51:38;8.70;99.90
37289;DHT22;23174;49.462;11.000;2023-02-01T04:53:39;8.80;99.90
37289;DHT22;23174;49.462;11.000;2023-02-01T04:55:40;8.80;99.90
37289;DHT22;23174;49.462;11.000;2023-02-01T04:57:44;8.80;99.90
37289;DHT22;23174;49.462;11.000;2023-02-01T04:59:44;8.70;99.90
37289;DHT22;23174;49.462;11.000;2023-02-01T05:01:45;8.60;99.90
37289;DHT22;23174;49.462;11.000;2023-02-01T05:03:45;8.70;99.90
37289;DHT22;23174;49.462;11.000;2023-02-01T05:05:48;8.70;99.90
37289;DHT22;23174;49.462;11.000;2023-02-01T05:07:49;8.70;99.90
37289;DHT22;23174;49.462;11.000;2023-02-01T05:09:49;8.70;99.90
37289;DHT22;23174;49.462;11.000;2023-02-01T05:11:50;8.70;99.90
37289;DHT22;23174;49.462;11.000;2023-02-01T05:14:09;8.70;99.90
37289;DHT22;23174;49.462;11.000;2023-02-01T05:16:09;8.70;99.90
37289;DHT22;23174;49.462;11.000;2023-02-01T05:18:10;8.70;99.90
37289;DHT22;23174;49.462;11.000;2023-02-01T05:20:11;8.70;99.90
37289;DHT22;23174;49.462;11.000;2023-02-01T05:22:11;8.70;99.90
37289;DHT22;23174;49.462;11.000;2023-02-01T05:24:12;8.70;99.90
37289;DHT22;23174;49.462;11.000;2023-02-01T05:26:14;8.70;99.90
37289;DHT22;23174;49.462;11.000;2023-02-01T05:28:14;8.80;99.90
37289;DHT22;23174;49.462;11.000;2023-02-01T05:30:15;8.70;99.90
37289;DHT22;23174;49.462;11.000;2023-02-01T05:32:16;8.60;99.90
37289;DHT22;23174;49.462;11.000;2023-02-01T05:34:16;8.70;99.90
37289;DHT22;23174;49.462;11.000;2023-02-01T05:36:17;8.70;99.90
37289;DHT22;23174;49.462;11.000;2023-02-01T05:38:17;8.70;99.90
37289;DHT22;23174;49.462;11.000;2023-02-01T05:40:18;8.60;99.90
37289;DHT22;23174;49.462;11.000;2023-02-01T05:42:19;8.70;99.90
37289;DHT22;23174;49.462;11.000;2023-02-01T05:44:19;8.70;99.90
37289;DHT22;23174;49.462;11.000;2023-02-01T05:46:21;8.70;99.90
37289;DHT22;23174;49.462;11.000;2023-02-01T05:48:21;8.70;99.90
37289;DHT22;23174;49.462;11.000;2023-02-01T05:50:22;8.70;99.90
37289;DHT22;23174;49.462;11.000;2023-02-01T05:52:22;8.50;99.90
37289;DHT22;23174;49.462;11.000;2023-02-01T05:54:23;8.40;99.90
37289;DHT22;23174;49.462;11.000;2023-02-01T05:56:24;8.40;99.90
37289;DHT22;23174;49.462;11.000;2023-02-01T05:58:24;8.40;99.90
37289;DHT22;23174;49.462;11.000;2023-02-01T06:00:25;8.40;99.90
37289;DHT22;23174;49.462;11.000;2023-02-01T06:02:28;8.40;99.90
37289;DHT22;23174;49.462;11.000;2023-02-01T06:04:29;8.50;99.90
37289;DHT22;23174;49.462;11.000;2023-02-01T06:06:29;8.50;99.90
37289;DHT22;23174;49.462;11.000;2023-02-01T06:08:30;8.40;99.90
37289;DHT22;23174;49.462;11.000;2023-02-01T06:10:30;8.40;99.90
37289;DHT22;23174;49.462;11.000;2023-02-01T06:12:31;8.30;99.90
37289;DHT22;23174;49.462;11.000;2023-02-01T06:14:31;8.30;99.90
37289;DHT22;23174;49.462;11.000;2023-02-01T06:16:32;8.30;99.90
37289;DHT22;23174;49.462;11.000;2023-02-01T06:18:34;8.30;99.90
37289;DHT22;23174;49.462;11.000;2023-02-01T06:20:34;8.20;99.90
37289;DHT22;23174;49.462;11.000;2023-02-01T06:22:35;8.30;99.90
37289;DHT22;23174;49.462;11.000;2023-02-01T06:24:36;8.20;99.90
37289;DHT22;23174;49.462;11.000;2023-02-01T06:26:36;8.30;99.90
37289;DHT22;23174;49.462;11.000;2023-02-01T06:28:37;8.30;99.90
37289;DHT22;23174;49.462;11.000;2023-02-01T06:30:39;8.30;99.90
37289;DHT22;23174;49.462;11.000;2023-02-01T06:32:43;8.30;99.90
37289;DHT22;23174;49.462;11.000;2023-02-01T06:34:43;8.30;99.90
37289;DHT22;23174;49.462;11.000;2023-02-01T06:36:44;8.30;99.90
37289;DHT22;23174;49.462;11.000;2023-02-01T06:38:45;8.30;99.90
37289;DHT22;23174;49.462;11.000;2023-02-01T06:40:52;8.30;99.90
37289;DHT22;23174;49.462;11.000;2023-02-01T06:42:52;8.30;99.90
37289;DHT22;23174;49.462;11.000;2023-02-01T06:44:53;8.30;99.90
37289;DHT22;23174;49.462;11.000;2023-02-01T06:46:54;8.30;99.90
37289;DHT22;23174;49.462;11.000;2023-02-01T06:48:55;8.30;99.90
37289;DHT22;23174;49.462;11.000;2023-02-01T06:50:56;8.30;99.90
37289;DHT22;23174;49.462;11.000;2023-02-01T06:52:56;8.30;99.90
37289;DHT22;23174;49.462;11.000;2023-02-01T06:54:57;8.30;99.90
37289;DHT22;23174;49.462;11.000;2023-02-01T06:56:58;8.30;99.90
37289;DHT22;23174;49.462;11.000;2023-02-01T06:58:58;8.30;99.90
37289;DHT22;23174;49.462;11.000;2023-02-01T07:01:05;8.30;99.90
37289;DHT22;23174;49.462;11.000;2023-02-01T07:03:06;8.30;99.90
37289;DHT22;23174;49.462;11.000;2023-02-01T07:05:06;8.30;99.90
37289;DHT22;23174;49.462;11.000;2023-02-01T07:07:07;8.30;99.90
37289;DHT22;23174;49.462;11.000;2023-02-01T07:09:08;8.30;99.90
37289;DHT22;23174;49.462;11.000;2023-02-01T07:11:11;8.30;99.90
37289;DHT22;23174;49.462;11.000;2023-02-01T07:13:15;8.30;99.90
37289;DHT22;23174;49.462;11.000;2023-02-01T07:15:16;8.20;99.90
37289;DHT22;23174;49.462;11.000;2023-02-01T07:17:16;7.70;99.90
37289;DHT22;23174;49.462;11.000;2023-02-01T07:19:17;7.50;99.90
37289;DHT22;23174;49.462;11.000;2023-02-01T07:21:18;7.40;99.90
37289;DHT22;23174;49.462;11.000;2023-02-01T07:23:19;7.40;99.90
37289;DHT22;23174;49.462;11.000;2023-02-01T07:25:20;7.30;99.90
37289;DHT22;23174;49.462;11.000;2023-02-01T07:27:21;7.50;99.90
37289;DHT22;23174;49.462;11.000;2023-02-01T07:29:21;7.40;99.90
37289;DHT22;23174;49.462;11.000;2023-02-01T07:31:22;7.50;99.90
37289;DHT22;23174;49.462;11.000;2023-02-01T07:33:23;7.50;99.90
37289;DHT22;23174;49.462;11.000;2023-02-01T07:35:24;7.40;99.90
37289;DHT22;23174;49.462;11.000;2023-02-01T07:37:25;7.50;99.90
37289;DHT22;23174;49.462;11.000;2023-02-01T07:39:25;7.50;99.90
37289;DHT22;23174;49.462;11.000;2023-02-01T07:41:28;7.60;99.90
37289;DHT22;23174;49.462;11.000;2023-02-01T07:43:29;7.60;99.90
37289;DHT22;23174;49.462;11.000;2023-02-01T07:45:30;7.60;99.90
37289;DHT22;23174;49.462;11.000;2023-02-01T07:47:31;7.70;99.90
37289;DHT22;23174;49.462;11.000;2023-02-01T07:49:31;7.70;99.90
37289;DHT22;23174;49.462;11.000;2023-02-01T07:51:32;7.70;99.90
37289;DHT22;23174;49.462;11.000;2023-02-01T07:53:33;7.80;99.90
37289;DHT22;23174;49.462;11.000;2023-02-01T07:55:37;7.60;99.90
37289;DHT22;23174;49.462;11.000;2023-02-01T07:57:38;7.60;99.90
37289;DHT22;23174;49.462;11.000;2023-02-01T07:59:39;7.70;99.90
37289;DHT22;23174;49.462;11.000;2023-02-01T08:01:59;7.80;99.90
37289;DHT22;23174;49.462;11.000;2023-02-01T08:04:01;7.80;99.90
37289;DHT22;23174;49.462;11.000;2023-02-01T08:06:02;7.80;99.90
37289;DHT22;23174;49.462;11.000;2023-02-01T08:08:03;7.80;99.90
37289;DHT22;23174;49.462;11.000;2023-02-01T08:10:04;7.80;99.90
37289;DHT22;23174;49.462;11.000;2023-02-01T08:12:10;7.80;99.90
37289;DHT22;23174;49.462;11.000;2023-02-01T08:14:11;7.90;99.90
37289;DHT22;23174;49.462;11.000;2023-02-01T08:16:13;7.80;99.90
37289;DHT22;23174;49.462;11.000;2023-02-01T08:18:14;7.90;99.90
37289;DHT22;23174;49.462;11.000;2023-02-01T08:20:19;7.90;99.90
37289;DHT22;23174;49.462;11.000;2023-02-01T08:22:22;7.90;99.90
37289;DHT22;23174;49.462;11.000;2023-02-01T08:24:22;7.90;99.90
37289;DHT22;23174;49.462;11.000;2023-02-01T08:26:25;7.80;99.90
37289;DHT22;23174;49.462;11.000;2023-02-01T08:28:25;7.80;99.90
37289;DHT22;23174;49.462;11.000;2023-02-01T08:30:26;7.90;99.90
37289;DHT22;23174;49.462;11.000;2023-02-01T08:32:27;7.90;99.90
37289;DHT22;23174;49.462;11.000;2023-02-01T08:34:28;7.90;99.90
37289;DHT22;23174;49.462;11.000;2023-02-01T08:36:30;8.00;99.90
37289;DHT22;23174;49.462;11.000;2023-02-01T08:38:31;8.10;99.90
37289;DHT22;23174;49.462;11.000;2023-02-01T08:40:32;8.10;99.90
37289;DHT22;23174;49.462;11.000;2023-02-01T08:42:33;7.60;99.90
37289;DHT22;23174;49.462;11.000;2023-02-01T08:44:52;7.40;99.90
37289;DHT22;23174;49.462;11.000;2023-02-01T08:46:52;7.40;99.90
37289;DHT22;23174;49.462;11.000;2023-02-01T08:48:53;7.40;99.90
37289;DHT22;23174;49.462;11.000;2023-02-01T08:50:54;7.40;99.90
37289;DHT22;23174;49.462;11.000;2023-02-01T08:52:54;7.40;99.90
37289;DHT22;23174;49.462;11.000;2023-02-01T08:54:55;7.40;99.90
37289;DHT22;23174;49.462;11.000;2023-02-01T08:56:55;7.50;99.90
37289;DHT22;23174;49.462;11.000;2023-02-01T08:58:56;7.50;99.90
37289;DHT22;23174;49.462;11.000;2023-02-01T09:00:57;7.50;99.90
37289;DHT22;23174;49.462;11.000;2023-02-01T09:03:02;7.40;99.90
37289;DHT22;23174;49.462;11.000;2023-02-01T09:05:04;7.60;99.90
37289;DHT22;23174;49.462;11.000;2023-02-01T09:07:04;7.50;99.90
37289;DHT22;23174;49.462;11.000;2023-02-01T09:09:05;7.50;99.90
37289;DHT22;23174;49.462;11.000;2023-02-01T09:11:10;7.40;99.90
37289;DHT22;23174;49.462;11.000;2023-02-01T09:13:11;7.60;99.90
37289;DHT22;23174;49.462;11.000;2023-02-01T09:15:12;7.50;99.90
37289;DHT22;23174;49.462;11.000;2023-02-01T09:17:12;7.50;99.90
37289;DHT22;23174;49.462;11.000;2023-02-01T09:19:14;7.40;99.90
37289;DHT22;23174;49.462;11.000;2023-02-01T09:21:14;7.40;99.90
37289;DHT22;23174;49.462;11.000;2023-02-01T09:23:15;7.40;99.90
37289;DHT22;23174;49.462;11.000;2023-02-01T09:25:15;7.40;99.90
37289;DHT22;23174;49.462;11.000;2023-02-01T09:27:16;7.30;99.90
37289;DHT22;23174;49.462;11.000;2023-02-01T09:29:17;7.40;99.90
37289;DHT22;23174;49.462;11.000;2023-02-01T09:31:18;7.20;99.90
37289;DHT22;23174;49.462;11.000;2023-02-01T09:33:19;7.20;99.90
37289;DHT22;23174;49.462;11.000;2023-02-01T09:35:21;7.00;99.90
37289;DHT22;23174;49.462;11.000;2023-02-01T09:37:22;7.00;99.90
37289;DHT22;23174;49.462;11.000;2023-02-01T09:39:22;6.70;99.90
37289;DHT22;23174;49.462;11.000;2023-02-01T09:44:14;6.70;99.90
37289;DHT22;23174;49.462;11.000;2023-02-01T09:46:23;6.80;99.90
37289;DHT22;23174;49.462;11.000;2023-02-01T09:48:29;6.80;99.90
37289;DHT22;23174;49.462;11.000;2023-02-01T09:50:36;6.80;99.90
37289;DHT22;23174;49.462;11.000;2023-02-01T09:52:44;6.80;99.90
37289;DHT22;23174;49.462;11.000;2023-02-01T09:54:56;6.80;99.90
37289;DHT22;23174;49.462;11.000;2023-02-01T09:57:06;6.90;99.90
37289;DHT22;23174;49.462;11.000;2023-02-01T10:01:27;7.10;99.90
37289;DHT22;23174;49.462;11.000;2023-02-01T10:03:36;7.10;99.90
37289;DHT22;23174;49.462;11.000;2023-02-01T10:06:10;7.10;99.90
37289;DHT22;23174;49.462;11.000;2023-02-01T10:11:23;7.20;99.90
37289;DHT22;23174;49.462;11.000;2023-02-01T10:22:52;8.90;99.90
37289;DHT22;23174;49.462;11.000;2023-02-01T10:25:08;9.00;99.90
37289;DHT22;23174;49.462;11.000;2023-02-01T10:27:42;9.10;99.90
37289;DHT22;23174;49.462;11.000;2023-02-01T10:29:46;9.20;99.90
37289;DHT22;23174;49.462;11.000;2023-02-01T10:31:47;9.30;99.90
37289;DHT22;23174;49.462;11.000;2023-02-01T10:33:56;9.30;99.90
37289;DHT22;23174;49.462;11.000;2023-02-01T10:36:14;9.30;99.90
37289;DHT22;23174;49.462;11.000;2023-02-01T10:38:27;9.40;99.90
37289;DHT22;23174;49.462;11.000;2023-02-01T10:40:28;9.30;99.90
37289;DHT22;23174;49.462;11.000;2023-02-01T10:42:29;9.30;99.90
37289;DHT22;23174;49.462;11.000;2023-02-01T10:44:41;9.40;99.90
37289;DHT22;23174;49.462;11.000;2023-02-01T10:46:43;9.40;99.90
37289;DHT22;23174;49.462;11.000;2023-02-01T10:48:44;9.40;99.90
37289;DHT22;23174;49.462;11.000;2023-02-01T10:50:54;9.40;99.90
37289;DHT22;23174;49.462;11.000;2023-02-01T10:53:06;9.40;99.90
37289;DHT22;23174;49.462;11.000;2023-02-01T10:55:33;9.30;99.90
37289;DHT22;23174;49.462;11.000;2023-02-01T10:57:34;9.40;99.90
37289;DHT22;23174;49.462;11.000;2023-02-01T10:59:34;9.30;99.90
37289;DHT22;23174;49.462;11.000;2023-02-01T11:01:40;9.30;99.90
37289;DHT22;23174;49.462;11.000;2023-02-01T11:03:46;9.40;99.90
37289;DHT22;23174;49.462;11.000;2023-02-01T11:05:52;9.40;99.90
37289;DHT22;23174;49.462;11.000;2023-02-01T11:07:54;9.40;99.90
37289;DHT22;23174;49.462;11.000;2023-02-01T11:10:00;9.50;99.90
37289;DHT22;23174;49.462;11.000;2023-02-01T11:12:02;9.50;99.90
37289;DHT22;23174;49.462;11.000;2023-02-01T11:14:14;9.50;99.90
37289;DHT22;23174;49.462;11.000;2023-02-01T11:16:15;9.60;99.90
37289;DHT22;23174;49.462;11.000;2023-02-01T11:18:19;9.60;99.90
37289;DHT22;23174;49.462;11.000;2023-02-01T11:22:34;9.60;99.90
37289;DHT22;23174;49.462;11.000;2023-02-01T11:24:35;9.60;99.90
37289;DHT22;23174;49.462;11.000;2023-02-01T11:26:40;9.60;99.90
37289;DHT22;23174;49.462;11.000;2023-02-01T11:28:50;9.60;99.90
37289;DHT22;23174;49.462;11.000;2023-02-01T11:30:53;9.70;99.90
37289;DHT22;23174;49.462;11.000;2023-02-01T11:32:55;9.70;99.90
37289;DHT22;23174;49.462;11.000;2023-02-01T11:35:01;9.60;99.90
37289;DHT22;23174;49.462;11.000;2023-02-01T11:37:02;9.60;99.90
37289;DHT22;23174;49.462;11.000;2023-02-01T11:41:24;9.70;99.90
37289;DHT22;23174;49.462;11.000;2023-02-01T11:43:27;9.70;99.90
37289;DHT22;23174;49.462;11.000;2023-02-01T11:45:30;9.70;99.90
37289;DHT22;23174;49.462;11.000;2023-02-01T11:47:39;9.70;99.90
37289;DHT22;23174;49.462;11.000;2023-02-01T11:49:39;9.80;99.90
37289;DHT22;23174;49.462;11.000;2023-02-01T11:52:10;9.80;99.90
37289;DHT22;23174;49.462;11.000;2023-02-01T11:54:33;10.00;99.90
37289;DHT22;23174;49.462;11.000;2023-02-01T11:57:01;9.90;99.90
37289;DHT22;23174;49.462;11.000;2023-02-01T11:59:16;9.80;99.90
37289;DHT22;23174;49.462;11.000;2023-02-01T12:06:48;9.70;99.90
37289;DHT22;23174;49.462;11.000;2023-02-01T12:11:23;9.80;99.90
37289;DHT22;23174;49.462;11.000;2023-02-01T12:16:19;9.90;99.90
37289;DHT22;23174;49.462;11.000;2023-02-01T12:35:12;9.70;99.90
37289;DHT22;23174;49.462;11.000;2023-02-01T12:37:39;9.70;99.90
37289;DHT22;23174;49.462;11.000;2023-02-01T12:42:24;9.80;99.90
37289;DHT22;23174;49.462;11.000;2023-02-01T12:44:32;9.80;99.90
37289;DHT22;23174;49.462;11.000;2023-02-01T12:46:43;9.80;99.90
37289;DHT22;23174;49.462;11.000;2023-02-01T12:49:18;9.80;99.90
37289;DHT22;23174;49.462;11.000;2023-02-01T12:51:24;9.90;99.90
37289;DHT22;23174;49.462;11.000;2023-02-01T12:55:41;9.80;99.90
37289;DHT22;23174;49.462;11.000;2023-02-01T12:57:47;9.80;99.90
37289;DHT22;23174;49.462;11.000;2023-02-01T13:02:16;9.80;99.90
37289;DHT22;23174;49.462;11.000;2023-02-01T13:06:28;9.90;99.90
37289;DHT22;23174;49.462;11.000;2023-02-01T13:09:00;9.90;99.90
37289;DHT22;23174;49.462;11.000;2023-02-01T13:11:06;9.80;99.90
37289;DHT22;23174;49.462;11.000;2023-02-01T13:17:23;9.90;99.90
37289;DHT22;23174;49.462;11.000;2023-02-01T13:19:50;8.70;99.90
37289;DHT22;23174;49.462;11.000;2023-02-01T13:22:01;8.10;99.90
37289;DHT22;23174;49.462;11.000;2023-02-01T13:24:03;8.00;99.90
37289;DHT22;23174;49.462;11.000;2023-02-01T13:26:04;7.90;99.90
37289;DHT22;23174;49.462;11.000;2023-02-01T13:28:20;7.80;99.90
37289;DHT22;23174;49.462;11.000;2023-02-01T13:30:27;7.90;99.90
37289;DHT22;23174;49.462;11.000;2023-02-01T13:32:51;7.90;99.90
37289;DHT22;23174;49.462;11.000;2023-02-01T13:40:23;8.00;99.90
37289;DHT22;23174;49.462;11.000;2023-02-01T13:42:29;8.20;99.90
37289;DHT22;23174;49.462;11.000;2023-02-01T13:44:40;8.10;99.90
37289;DHT22;23174;49.462;11.000;2023-02-01T13:46:45;8.00;99.90
37289;DHT22;23174;49.462;11.000;2023-02-01T13:48:49;8.00;99.90
37289;DHT22;23174;49.462;11.000;2023-02-01T13:50:56;7.90;99.90
37289;DHT22;23174;49.462;11.000;2023-02-01T13:53:00;8.00;99.90
37289;DHT22;23174;49.462;11.000;2023-02-01T13:55:26;7.90;99.90
37289;DHT22;23174;49.462;11.000;2023-02-01T13:57:38;7.90;99.90
37289;DHT22;23174;49.462;11.000;2023-02-01T14:01:40;8.00;99.90
37289;DHT22;23174;49.462;11.000;2023-02-01T14:03:48;8.00;99.90
37289;DHT22;23174;49.462;11.000;2023-02-01T14:12:47;8.00;99.90
37289;DHT22;23174;49.462;11.000;2023-02-01T14:14:48;8.00;99.90
37289;DHT22;23174;49.462;11.000;2023-02-01T14:19:00;8.00;99.90
37289;DHT22;23174;49.462;11.000;2023-02-01T14:23:20;8.00;99.90
37289;DHT22;23174;49.462;11.000;2023-02-01T14:25:22;7.90;99.90
37289;DHT22;23174;49.462;11.000;2023-02-01T14:27:28;8.00;99.90
37289;DHT22;23174;49.462;11.000;2023-02-01T14:29:41;8.00;99.90
37289;DHT22;23174;49.462;11.000;2023-02-01T14:34:16;8.00;99.90
37289;DHT22;23174;49.462;11.000;2023-02-01T14:36:17;8.10;99.90
37289;DHT22;23174;49.462;11.000;2023-02-01T14:38:20;8.00;99.90
37289;DHT22;23174;49.462;11.000;2023-02-01T14:40:26;8.00;99.90
37289;DHT22;23174;49.462;11.000;2023-02-01T14:44:36;7.90;99.90
37289;DHT22;23174;49.462;11.000;2023-02-01T14:49:15;7.90;99.90
37289;DHT22;23174;49.462;11.000;2023-02-01T14:51:17;7.90;99.90
37289;DHT22;23174;49.462;11.000;2023-02-01T14:53:33;7.90;99.90
37289;DHT22;23174;49.462;11.000;2023-02-01T14:55:53;7.90;99.90
37289;DHT22;23174;49.462;11.000;2023-02-01T14:57:58;7.90;99.90
37289;DHT22;23174;49.462;11.000;2023-02-01T15:02:21;7.80;99.90
37289;DHT22;23174;49.462;11.000;2023-02-01T15:04:25;7.80;99.90
37289;DHT22;23174;49.462;11.000;2023-02-01T15:08:39;7.70;99.90
37289;DHT22;23174;49.462;11.000;2023-02-01T15:10:45;7.90;99.90
37289;DHT22;23174;49.462;11.000;2023-02-01T15:12:47;7.80;99.90